Time;durP1;ratioP1;P1;durP2;ratioP2;P2;SDS_P1;SDS_P2;PMS_P1;PMS_P2;Temp;Humidity;BMP_temperature;BMP_pressure;BME280_temperature;BME280_humidity;BME280_pressure;Samples;Min_cycle;Max_cycle;Signal;HPM_P1;HPM_P2
2022/04/01 00:00:54;;;;;;;14.60;10.38;;;4.30;99.90;;;;;;5091209;28;20198;-89
2022/04/01 00:03:21;;;;;;;12.73;10.18;;;4.30;99.90;;;;;;5081417;28;20198;-89
2022/04/01 00:05:48;;;;;;;18.55;10.55;;;4.30;99.90;;;;;;5080961;28;20191;-89
2022/04/01 00:08:15;;;;;;;12.18;9.35;;;4.30;99.90;;;;;;5095148;28;20221;-88
2022/04/01 00:10:44;;;;;;;12.85;9.35;;;4.90;99.90;;;;;;5079112;28;20265;-89
2022/04/01 00:13:14;;;;;;;14.25;9.43;;;4.20;99.90;;;;;;5089286;28;20203;-89
2022/04/01 00:15:42;;;;;;;13.80;10.23;;;4.20;99.90;;;;;;5092339;28;20214;-88
2022/04/01 00:18:11;;;;;;;13.65;9.05;;;4.10;99.90;;;;;;5062607;28;20823;-88
2022/04/01 00:20:38;;;;;;;15.85;9.43;;;4.20;99.90;;;;;;5077396;28;20200;-89
2022/04/01 00:23:06;;;;;;;12.23;9.20;;;4.20;99.90;;;;;;5086581;28;20205;-88
2022/04/01 00:25:34;;;;;;;10.23;8.30;;;4.10;99.90;;;;;;5083045;28;20203;-88
2022/04/01 00:28:02;;;;;;;15.07;9.07;;;4.10;99.90;;;;;;5075853;28;20660;-88
2022/04/01 00:30:38;;;;;;;15.23;9.27;;;4.10;99.90;;;;;;5094301;28;20198;-89
2022/04/01 00:33:08;;;;;;;16.02;10.20;;;4.10;99.90;;;;;;5082803;28;20205;-88
2022/04/01 00:35:37;;;;;;;13.35;10.18;;;4.10;99.90;;;;;;5089816;28;20218;-88
2022/04/01 00:38:04;;;;;;;13.20;9.55;;;4.10;99.90;;;;;;5083612;28;20872;-88
2022/04/01 00:40:31;;;;;;;12.52;9.40;;;4.20;99.90;;;;;;5077849;28;20198;-88
2022/04/01 00:42:58;;;;;;;15.68;10.93;;;4.70;99.90;;;;;;5072543;28;20599;-88
2022/04/01 00:45:24;;;;;;;13.63;10.55;;;4.10;99.90;;;;;;5087975;28;20219;-88
2022/04/01 00:47:51;;;;;;;13.50;8.90;;;4.20;99.90;;;;;;5080451;28;20199;-88
2022/04/01 00:50:19;;;;;;;18.02;10.52;;;4.90;99.90;;;;;;5087272;28;20199;-89
2022/04/01 00:52:47;;;;;;;15.90;11.00;;;4.30;99.90;;;;;;5083211;28;20823;-88
2022/04/01 00:55:14;;;;;;;13.60;10.80;;;4.20;99.90;;;;;;5093878;28;20199;-87
2022/04/01 00:57:41;;;;;;;16.42;10.90;;;4.10;99.90;;;;;;5092525;28;20910;-88
2022/04/01 01:00:12;;;;;;;13.07;9.20;;;4.20;99.90;;;;;;5073844;28;20196;-90
2022/04/01 01:02:40;;;;;;;16.23;9.05;;;4.20;99.90;;;;;;5070273;28;20666;-88
2022/04/01 01:05:08;;;;;;;14.77;10.00;;;4.20;99.90;;;;;;5076141;28;20207;-88
2022/04/01 01:07:36;;;;;;;17.02;10.00;;;4.20;99.90;;;;;;5073930;28;20198;-89
2022/04/01 01:10:06;;;;;;;10.43;8.45;;;4.20;99.90;;;;;;5077411;28;20238;-89
2022/04/01 01:12:34;;;;;;;14.05;9.00;;;4.20;99.90;;;;;;5082344;28;20198;-89
2022/04/01 01:15:10;;;;;;;12.80;9.10;;;4.30;99.90;;;;;;5084700;28;20207;-89
2022/04/01 01:17:39;;;;;;;11.90;7.95;;;4.30;99.90;;;;;;5080902;28;20233;-89
2022/04/01 01:20:12;;;;;;;13.25;9.27;;;4.30;99.90;;;;;;5083078;28;20196;-89
2022/04/01 01:22:41;;;;;;;13.98;9.60;;;4.40;99.90;;;;;;5084966;28;20978;-89
2022/04/01 01:25:12;;;;;;;11.88;8.25;;;4.50;99.90;;;;;;5081335;28;20647;-89
2022/04/01 01:27:40;;;;;;;13.63;9.65;;;4.40;99.90;;;;;;5065106;28;20194;-89
2022/04/01 01:30:10;;;;;;;12.23;9.23;;;4.30;99.90;;;;;;5085900;28;20214;-88
2022/04/01 01:32:38;;;;;;;12.60;8.35;;;4.50;99.90;;;;;;5054447;28;20192;-89
2022/04/01 01:35:08;;;;;;;12.48;8.85;;;4.40;99.90;;;;;;5090478;28;20721;-90
2022/04/01 01:37:36;;;;;;;14.55;9.13;;;4.50;99.90;;;;;;5079671;28;20230;-90
2022/04/01 01:40:06;;;;;;;9.57;7.82;;;4.40;99.90;;;;;;5075933;28;20241;-89
2022/04/01 01:42:36;;;;;;;14.23;9.57;;;4.20;99.90;;;;;;5088337;28;20192;-89
2022/04/01 01:45:05;;;;;;;12.52;8.13;;;4.20;99.90;;;;;;5082724;28;20650;-89
2022/04/01 01:47:32;;;;;;;15.43;8.82;;;4.70;99.90;;;;;;5090469;28;20285;-89
2022/04/01 01:55:29;;;;;;;11.65;8.73;;;4.40;99.90;;;;;;5064509;28;20195;-89
2022/04/01 01:57:58;;;;;;;12.10;8.25;;;4.10;99.90;;;;;;5074790;28;20195;-89
2022/04/01 02:00:25;;;;;;;17.15;9.88;;;4.80;99.90;;;;;;5072930;28;20203;-89
2022/04/01 02:02:52;;;;;;;11.32;9.70;;;4.10;99.90;;;;;;5076192;28;20211;-88
2022/04/01 02:05:19;;;;;;;15.48;10.70;;;4.00;99.90;;;;;;5073296;28;20203;-89
2022/04/01 02:07:47;;;;;;;13.23;9.18;;;4.20;99.90;;;;;;5075796;28;20234;-89
2022/04/01 02:10:15;;;;;;;15.40;11.15;;;2.50;99.90;;;;;;5078370;28;20207;-88
2022/04/01 02:12:43;;;;;;;15.00;9.80;;;4.00;99.90;;;;;;5073980;28;20187;-89
2022/04/01 02:15:12;;;;;;;15.63;10.20;;;4.10;99.90;;;;;;5083245;28;20203;-89
2022/04/01 02:17:40;;;;;;;14.10;10.15;;;4.10;99.90;;;;;;5075744;28;20239;-89
2022/04/01 02:20:09;;;;;;;13.90;10.35;;;4.20;99.90;;;;;;5083533;28;20880;-89
2022/04/01 02:22:37;;;;;;;13.95;10.35;;;4.20;99.90;;;;;;5088818;28;20214;-88
2022/04/01 02:25:07;;;;;;;17.17;12.43;;;4.10;99.90;;;;;;5087412;28;20229;-89
2022/04/01 02:27:34;;;;;;;15.80;10.40;;;4.10;99.90;;;;;;5077443;28;20198;-89
2022/04/01 02:30:10;;;;;;;15.95;11.40;;;4.50;99.90;;;;;;5075423;28;20666;-89
2022/04/01 02:32:38;;;;;;;18.17;11.70;;;3.80;99.90;;;;;;5079938;28;20209;-89
2022/04/01 02:35:06;;;;;;;16.35;12.15;;;5.00;99.90;;;;;;5086065;28;20207;-88
2022/04/01 02:37:33;;;;;;;15.32;11.00;;;4.10;99.90;;;;;;5086894;28;20234;-89
2022/04/01 02:40:02;;;;;;;15.90;10.82;;;4.00;99.90;;;;;;5088528;28;20226;-89
2022/04/01 02:42:54;;;;;;;15.93;11.07;;;3.90;99.90;;;;;;5085976;28;20225;-89
2022/04/01 02:45:21;;;;;;;17.38;12.43;;;4.10;99.90;;;;;;5060278;28;20253;-89
2022/04/01 02:47:50;;;;;;;26.10;12.35;;;2.70;99.90;;;;;;5085852;28;20255;-89
2022/04/01 02:50:17;;;;;;;21.65;14.20;;;4.60;99.90;;;;;;5078607;28;20317;-89
2022/04/01 02:52:44;;;;;;;17.73;12.27;;;4.00;99.90;;;;;;5087931;28;20207;-89
2022/04/01 02:55:12;;;;;;;21.48;12.50;;;3.90;99.90;;;;;;5077494;28;20199;-89
2022/04/01 02:57:39;;;;;;;18.77;12.55;;;4.00;99.90;;;;;;5072474;28;20219;-90
2022/04/01 03:00:09;;;;;;;18.63;12.68;;;4.20;99.90;;;;;;5084514;28;20199;-89
2022/04/01 03:02:37;;;;;;;20.63;12.00;;;4.00;99.90;;;;;;5082132;28;20195;-89
2022/04/01 03:05:07;;;;;;;15.68;11.98;;;4.30;99.90;;;;;;5073745;28;20199;-89
2022/04/01 03:07:34;;;;;;;19.02;12.02;;;3.90;99.90;;;;;;5079489;28;20198;-89
2022/04/01 03:10:02;;;;;;;22.13;14.57;;;4.00;99.90;;;;;;5074530;28;20202;-88
2022/04/01 03:12:30;;;;;;;35.20;14.52;;;3.90;99.90;;;;;;5084741;28;20199;-88
2022/04/01 03:14:57;;;;;;;22.40;15.30;;;3.90;99.90;;;;;;5076815;28;20282;-89
2022/04/01 03:17:24;;;;;;;27.15;14.70;;;3.80;99.90;;;;;;5090166;28;20214;-89
2022/04/01 03:19:51;;;;;;;25.63;14.10;;;3.90;99.90;;;;;;5083651;28;20210;-89
2022/04/01 03:22:20;;;;;;;28.42;17.20;;;5.20;99.90;;;;;;5074948;28;20203;-90
2022/04/01 03:24:47;;;;;;;21.73;13.75;;;3.80;99.90;;;;;;5077423;28;20258;-89
2022/04/01 03:27:14;;;;;;;26.63;16.45;;;6.10;99.90;;;;;;5091497;28;20226;-88
2022/04/01 03:29:41;;;;;;;23.67;17.17;;;3.80;99.90;;;;;;5077723;28;20198;-88
2022/04/01 03:32:10;;;;;;;25.77;14.65;;;3.80;99.90;;;;;;5082509;28;20252;-89
2022/04/01 03:34:38;;;;;;;24.60;16.58;;;3.70;99.90;;;;;;5084276;28;20214;-88
2022/04/01 03:37:05;;;;;;;25.80;17.00;;;3.70;99.90;;;;;;5087522;28;20223;-89
2022/04/01 03:39:34;;;;;;;23.75;15.02;;;3.70;99.90;;;;;;5081560;28;20209;-89
2022/04/01 03:42:06;;;;;;;21.73;13.15;;;3.70;99.90;;;;;;5085622;28;20210;-89
2022/04/01 03:44:36;;;;;;;26.05;13.18;;;3.60;99.90;;;;;;5075759;28;20218;-88
2022/04/01 03:47:05;;;;;;;19.20;13.30;;;3.50;99.90;;;;;;5079940;28;20286;-87
2022/04/01 03:49:34;;;;;;;21.25;14.50;;;3.50;99.90;;;;;;5085815;28;20234;-89
2022/04/01 03:52:16;;;;;;;16.90;11.80;;;3.50;99.90;;;;;;5078343;28;20286;-89
2022/04/01 03:54:47;;;;;;;17.95;11.55;;;3.50;99.90;;;;;;5089681;28;20221;-90
2022/04/01 03:57:16;;;;;;;20.52;13.80;;;3.40;99.90;;;;;;5094701;28;20226;-89
2022/04/01 03:59:50;;;;;;;18.10;12.63;;;3.40;99.90;;;;;;5085138;28;20268;-89
2022/04/01 04:02:19;;;;;;;17.60;13.00;;;3.40;99.90;;;;;;5075741;28;20202;-88
2022/04/01 04:04:46;;;;;;;16.60;11.68;;;3.50;99.90;;;;;;5078532;28;20203;-89
2022/04/01 04:07:14;;;;;;;18.42;13.20;;;3.50;99.90;;;;;;5075729;28;20207;-89
2022/04/01 04:09:41;;;;;;;23.83;12.52;;;3.50;99.90;;;;;;5093424;28;20202;-89
2022/04/01 04:12:13;;;;;;;21.08;12.35;;;3.50;99.90;;;;;;5074716;28;20294;-89
2022/04/01 04:14:41;;;;;;;23.52;13.18;;;3.40;99.90;;;;;;5079179;28;20207;-90
2022/04/01 04:17:14;;;;;;;15.07;11.23;;;3.30;99.90;;;;;;5094665;28;20206;-88
2022/04/01 04:19:50;;;;;;;19.27;11.90;;;4.00;99.90;;;;;;5093030;28;20203;-89
2022/04/01 04:22:30;;;;;;;21.50;11.65;;;5.00;99.90;;;;;;5094271;28;20202;-89
2022/04/01 04:24:59;;;;;;;13.88;11.02;;;3.30;99.90;;;;;;5071709;28;20210;-89
2022/04/01 04:27:30;;;;;;;15.80;10.52;;;3.50;99.90;;;;;;5092323;28;20269;-88
2022/04/01 04:30:05;;;;;;;17.00;11.10;;;3.20;99.90;;;;;;5082461;28;20218;-89
2022/04/01 04:32:35;;;;;;;17.17;11.27;;;3.30;99.90;;;;;;5075894;28;20186;-89
2022/04/01 04:35:05;;;;;;;14.60;9.75;;;3.20;99.90;;;;;;5089703;28;20207;-88
2022/04/01 04:37:35;;;;;;;15.77;9.60;;;3.20;99.90;;;;;;5078234;28;20257;-86
2022/04/01 04:40:04;;;;;;;14.57;10.70;;;3.20;99.90;;;;;;5088349;28;20203;-86
2022/04/01 04:42:33;;;;;;;16.33;10.88;;;3.20;99.90;;;;;;5088680;28;20195;-85
2022/04/01 04:45:00;;;;;;;14.82;10.02;;;4.00;99.90;;;;;;5086703;28;20206;-86
2022/04/01 04:47:28;;;;;;;13.93;10.40;;;3.30;99.90;;;;;;5087592;28;20653;-86
2022/04/01 04:49:57;;;;;;;12.60;9.13;;;3.30;99.90;;;;;;5078575;28;20217;-86
2022/04/01 04:52:29;;;;;;;16.45;10.48;;;3.20;99.90;;;;;;5070981;28;20211;-85
2022/04/01 04:54:57;;;;;;;12.52;9.10;;;3.10;99.90;;;;;;5082989;28;20268;-85
2022/04/01 04:57:27;;;;;;;17.88;10.57;;;3.10;99.90;;;;;;5079556;28;20306;-85
2022/04/01 04:59:58;;;;;;;18.17;10.77;;;3.10;99.90;;;;;;5083400;28;20202;-85
2022/04/01 05:02:35;;;;;;;16.20;10.40;;;3.10;99.90;;;;;;5070649;28;20234;-86
2022/04/01 05:05:05;;;;;;;14.20;9.98;;;3.10;99.90;;;;;;5074158;28;20191;-85
2022/04/01 05:07:42;;;;;;;14.68;9.80;;;2.50;99.90;;;;;;5066426;28;20203;-87
2022/04/01 05:10:16;;;;;;;12.93;9.02;;;3.10;99.90;;;;;;5064330;28;20231;-86
2022/04/01 05:12:54;;;;;;;11.45;8.90;;;2.90;99.90;;;;;;5089477;28;20673;-86
2022/04/01 05:15:29;;;;;;;12.95;9.00;;;2.80;99.90;;;;;;5073839;28;20207;-87
2022/04/01 05:18:02;;;;;;;11.95;9.07;;;2.90;99.90;;;;;;5069478;28;20306;-87
2022/04/01 05:20:30;;;;;;;13.73;10.07;;;2.90;99.90;;;;;;5071213;28;20200;-87
2022/04/01 05:23:07;;;;;;;16.88;8.57;;;2.90;99.90;;;;;;5071299;28;20245;-87
2022/04/01 05:25:42;;;;;;;15.82;9.38;;;2.80;99.90;;;;;;5072677;28;20219;-89
2022/04/01 05:28:21;;;;;;;12.05;9.35;;;2.70;99.90;;;;;;5061141;28;20203;-87
2022/04/01 05:30:58;;;;;;;13.52;8.95;;;3.50;99.90;;;;;;5072902;28;20222;-87
2022/04/01 05:33:32;;;;;;;11.98;9.00;;;2.80;99.90;;;;;;5076740;28;20240;-88
2022/04/01 05:36:12;;;;;;;11.68;8.48;;;2.70;99.90;;;;;;5093549;28;20206;-89
2022/04/01 05:38:40;;;;;;;14.13;7.93;;;2.70;99.90;;;;;;5056359;28;20276;-85
2022/04/01 05:41:07;;;;;;;12.13;9.40;;;2.70;99.90;;;;;;5064877;28;20640;-84
2022/04/01 05:43:34;;;;;;;12.25;9.02;;;2.70;99.90;;;;;;5063429;28;20204;-85
2022/04/01 05:46:04;;;;;;;15.43;10.70;;;2.70;99.90;;;;;;5067723;28;20206;-85
2022/04/01 05:48:32;;;;;;;15.40;10.75;;;2.70;99.90;;;;;;5063087;28;20206;-84
2022/04/01 05:51:02;;;;;;;15.55;9.05;;;2.70;99.90;;;;;;5067204;28;20207;-85
2022/04/01 05:53:29;;;;;;;14.65;9.75;;;2.70;99.90;;;;;;5068128;28;20201;-85
2022/04/01 05:55:56;;;;;;;16.88;10.23;;;2.70;99.90;;;;;;5064112;28;20291;-84
2022/04/01 05:58:23;;;;;;;14.75;9.82;;;2.70;99.90;;;;;;5058882;28;20693;-85
2022/04/01 06:00:57;;;;;;;12.45;9.90;;;2.60;99.90;;;;;;5068896;28;20706;-83
2022/04/01 06:04:02;;;;;;;12.90;9.02;;;2.60;99.90;;;;;;5050146;28;20609;-83
2022/04/01 06:06:31;;;;;;;10.25;8.60;;;2.70;99.90;;;;;;5058731;28;20281;-83
2022/04/01 06:09:02;;;;;;;9.93;7.75;;;2.60;99.90;;;;;;5068765;28;20202;-84
2022/04/01 06:11:38;;;;;;;13.25;9.32;;;2.50;99.90;;;;;;5065301;28;20203;-84
2022/04/01 06:14:16;;;;;;;13.70;10.77;;;2.50;99.90;;;;;;5063695;28;20211;-86
2022/04/01 06:16:46;;;;;;;12.07;8.55;;;2.50;99.90;;;;;;5066270;28;20643;-86
2022/04/01 06:19:25;;;;;;;10.95;8.90;;;2.50;99.90;;;;;;5066853;28;20227;-87
2022/04/01 06:22:05;;;;;;;15.35;10.00;;;2.40;99.90;;;;;;5066877;28;20261;-86
2022/04/01 06:24:44;;;;;;;14.35;9.27;;;2.50;99.90;;;;;;5063452;28;20268;-86
2022/04/01 06:27:17;;;;;;;13.13;9.43;;;2.70;99.90;;;;;;5070667;28;20519;-88
2022/04/01 06:29:57;;;;;;;12.23;10.65;;;2.60;99.90;;;;;;5073215;28;20211;-84
2022/04/01 06:32:31;;;;;;;14.48;10.98;;;2.60;99.90;;;;;;5059677;28;20253;-84
2022/04/01 06:35:05;;;;;;;16.02;11.93;;;2.50;99.90;;;;;;5067288;28;20211;-84
2022/04/01 06:37:37;;;;;;;15.00;10.32;;;2.50;99.90;;;;;;5066014;28;20248;-84
2022/04/01 06:40:06;;;;;;;14.70;9.80;;;2.40;99.90;;;;;;5070218;28;20273;-85
2022/04/01 06:42:37;;;;;;;15.27;10.15;;;2.40;99.90;;;;;;5066725;28;20199;-84
2022/04/01 06:45:05;;;;;;;12.55;10.25;;;2.40;99.90;;;;;;5071593;28;20202;-84
2022/04/01 06:47:32;;;;;;;14.82;10.50;;;2.30;99.90;;;;;;5069879;28;20199;-84
2022/04/01 06:49:59;;;;;;;12.23;8.40;;;2.40;99.90;;;;;;5067398;28;20225;-84
2022/04/01 06:52:27;;;;;;;14.40;11.02;;;2.20;99.90;;;;;;5064944;28;20199;-83
2022/04/01 06:54:54;;;;;;;13.93;10.15;;;2.30;99.90;;;;;;5069734;28;20278;-84
2022/04/01 06:57:22;;;;;;;13.95;9.65;;;2.30;99.90;;;;;;5067743;28;20203;-83
2022/04/01 06:59:49;;;;;;;17.48;13.20;;;2.30;99.90;;;;;;5068021;28;20213;-84
2022/04/01 07:02:16;;;;;;;16.45;11.73;;;2.30;99.90;;;;;;5070393;28;20199;-84
2022/04/01 07:04:42;;;;;;;13.45;10.50;;;2.30;99.90;;;;;;5070071;28;20287;-84
2022/04/01 07:07:09;;;;;;;14.73;10.20;;;2.40;99.90;;;;;;5062489;28;20203;-83
2022/04/01 07:09:38;;;;;;;17.80;11.38;;;2.40;99.90;;;;;;5067775;28;20238;-84
2022/04/01 07:12:05;;;;;;;15.27;11.55;;;2.40;99.90;;;;;;5059165;28;20283;-84
2022/04/01 07:14:32;;;;;;;14.27;11.82;;;2.30;99.90;;;;;;5073008;28;20260;-84
2022/04/01 07:16:59;;;;;;;16.48;11.27;;;2.30;99.90;;;;;;5067771;28;20289;-84
2022/04/01 07:19:26;;;;;;;18.88;13.02;;;2.30;99.90;;;;;;5069225;28;20215;-84
2022/04/01 07:21:53;;;;;;;17.08;12.80;;;2.30;99.90;;;;;;5062373;28;20211;-84
2022/04/01 07:24:20;;;;;;;13.07;10.63;;;2.30;99.90;;;;;;5067846;28;20207;-83
2022/04/01 07:26:49;;;;;;;19.15;13.00;;;2.30;99.90;;;;;;5069988;28;20225;-84
2022/04/01 07:29:16;;;;;;;15.35;11.43;;;2.30;99.90;;;;;;5064670;28;20291;-84
2022/04/01 07:34:34;;;;;;;18.02;11.63;;;2.20;99.90;;;;;;5068274;28;20216;-84
2022/04/01 07:37:02;;;;;;;19.95;12.93;;;;;;;;;;5069708;28;20256;-84
2022/04/01 07:39:29;;;;;;;17.17;12.57;;;2.20;99.90;;;;;;5066708;28;20489;-84
2022/04/01 07:41:57;;;;;;;18.48;11.82;;;2.20;99.90;;;;;;5058831;28;20282;-83
2022/04/01 07:44:24;;;;;;;17.25;10.60;;;2.20;99.90;;;;;;5062569;28;20604;-84
2022/04/01 07:46:51;;;;;;;19.15;11.63;;;2.20;99.90;;;;;;5058756;28;20279;-84
2022/04/01 07:49:18;;;;;;;14.57;11.68;;;2.30;99.90;;;;;;5067005;28;20192;-84
2022/04/01 07:51:45;;;;;;;18.67;12.20;;;2.30;99.90;;;;;;5066748;28;20195;-84
2022/04/01 07:54:12;;;;;;;18.77;12.48;;;2.30;99.90;;;;;;5066621;28;20231;-83
2022/04/01 07:56:40;;;;;;;16.35;11.55;;;2.30;99.90;;;;;;5067514;28;20205;-84
2022/04/01 07:59:09;;;;;;;17.67;12.00;;;2.30;99.90;;;;;;5067878;28;20280;-84
2022/04/01 08:01:36;;;;;;;16.60;11.90;;;2.30;99.90;;;;;;5067444;28;20203;-84
2022/04/01 08:04:03;;;;;;;13.60;10.77;;;2.20;99.90;;;;;;5067940;28;20293;-84
2022/04/01 08:06:31;;;;;;;15.80;10.90;;;2.20;99.90;;;;;;5059327;28;20550;-84
2022/04/01 08:08:59;;;;;;;16.88;12.02;;;2.30;99.90;;;;;;5062815;28;20207;-84
2022/04/01 08:11:26;;;;;;;18.20;12.10;;;2.30;99.90;;;;;;5069496;28;20204;-83
2022/04/01 08:13:53;;;;;;;16.08;11.43;;;2.30;99.90;;;;;;5062568;28;20199;-84
2022/04/01 08:16:22;;;;;;;11.82;9.63;;;2.30;99.90;;;;;;5061776;28;20228;-84
2022/04/01 08:18:49;;;;;;;15.93;11.35;;;2.30;99.90;;;;;;5066815;28;20619;-84
2022/04/01 08:21:17;;;;;;;22.15;14.00;;;2.30;99.90;;;;;;5067121;28;20203;-83
2022/04/01 08:23:44;;;;;;;20.85;14.13;;;2.40;99.90;;;;;;5066927;28;20290;-83
2022/04/01 08:26:12;;;;;;;18.38;12.63;;;2.40;99.90;;;;;;5067925;28;20195;-83
2022/04/01 08:28:40;;;;;;;17.50;13.38;;;2.40;99.90;;;;;;5071199;28;20196;-83
2022/04/01 08:31:08;;;;;;;26.10;14.18;;;2.40;99.90;;;;;;5062919;28;20223;-83
2022/04/01 08:33:37;;;;;;;17.58;11.90;;;2.40;99.90;;;;;;5067852;28;20259;-83
2022/04/01 08:36:05;;;;;;;19.83;14.02;;;2.40;99.90;;;;;;5063974;28;20199;-84
2022/04/01 08:38:36;;;;;;;15.80;12.25;;;2.30;99.90;;;;;;5067822;28;20685;-83
2022/04/01 08:41:03;;;;;;;16.92;11.50;;;2.40;99.90;;;;;;5068703;28;20199;-84
2022/04/01 08:43:33;;;;;;;20.15;12.63;;;2.50;99.90;;;;;;5072367;28;20867;-83
2022/04/01 08:46:03;;;;;;;18.90;13.63;;;2.40;99.90;;;;;;5070030;28;20277;-83
2022/04/01 08:48:31;;;;;;;19.02;13.10;;;2.50;99.90;;;;;;5066583;28;20195;-83
2022/04/01 08:51:00;;;;;;;19.23;12.07;;;2.60;99.90;;;;;;5070814;28;20226;-83
2022/04/01 08:53:27;;;;;;;18.17;12.10;;;2.50;99.90;;;;;;5071479;28;20203;-83
2022/04/01 08:55:56;;;;;;;16.70;12.98;;;2.50;99.90;;;;;;5070720;28;20888;-83
2022/04/01 08:58:24;;;;;;;18.23;11.45;;;2.60;99.90;;;;;;5071308;28;20524;-83
2022/04/01 09:00:52;;;;;;;17.15;12.35;;;2.50;99.90;;;;;;5073438;28;20662;-84
2022/04/01 09:03:21;;;;;;;13.25;10.40;;;2.50;99.90;;;;;;5071366;28;20285;-84
2022/04/01 09:05:53;;;;;;;16.25;12.77;;;2.40;99.90;;;;;;5069364;28;20223;-84
2022/04/01 09:08:26;;;;;;;15.43;11.80;;;2.40;99.90;;;;;;5068548;28;20936;-84
2022/04/01 09:10:56;;;;;;;11.65;9.23;;;2.40;99.90;;;;;;5068907;28;20393;-83
2022/04/01 09:13:25;;;;;;;19.15;11.82;;;2.30;99.90;;;;;;5070546;28;20200;-86
2022/04/01 09:15:53;;;;;;;13.05;9.07;;;2.40;99.90;;;;;;5069605;28;20231;-85
2022/04/01 09:18:37;;;;;;;19.23;10.95;;;2.30;99.90;;;;;;5068601;28;20218;-85
2022/04/01 09:21:05;;;;;;;15.50;11.02;;;2.40;99.90;;;;;;5070616;28;20213;-86
2022/04/01 09:23:34;;;;;;;14.20;10.55;;;2.30;99.90;;;;;;5071875;28;20227;-86
2022/04/01 09:26:01;;;;;;;15.73;11.63;;;2.20;99.90;;;;;;5064851;28;20250;-85
2022/04/01 09:28:30;;;;;;;13.45;11.02;;;2.30;99.90;;;;;;5069763;28;20607;-85
2022/04/01 09:30:59;;;;;;;17.77;9.90;;;2.20;99.90;;;;;;5070045;28;20605;-86
2022/04/01 09:33:34;;;;;;;12.43;7.90;;;2.20;99.90;;;;;;5068889;28;20203;-85
2022/04/01 09:36:06;;;;;;;15.23;10.05;;;2.30;99.90;;;;;;5070223;28;20207;-85
2022/04/01 09:38:36;;;;;;;15.85;11.57;;;2.30;99.90;;;;;;5065243;28;20584;-85
2022/04/01 09:41:04;;;;;;;15.77;10.00;;;2.40;99.90;;;;;;5069906;28;20200;-85
2022/04/01 09:43:37;;;;;;;12.60;9.90;;;2.40;99.90;;;;;;5073203;28;20199;-86
2022/04/01 09:46:06;;;;;;;15.35;9.40;;;2.30;99.90;;;;;;5069081;28;20230;-86
2022/04/01 09:48:41;;;;;;;13.80;9.98;;;2.50;99.90;;;;;;5066275;28;20207;-87
2022/04/01 09:51:10;;;;;;;14.18;9.63;;;2.50;99.90;;;;;;5058055;28;20211;-86
2022/04/01 09:53:39;;;;;;;11.93;9.55;;;2.50;99.90;;;;;;5069195;28;20231;-86
2022/04/01 09:56:06;;;;;;;12.43;8.80;;;2.50;99.90;;;;;;5069800;28;20665;-86
2022/04/01 09:58:34;;;;;;;12.10;9.05;;;2.40;99.90;;;;;;5067459;28;20215;-86
2022/04/01 10:01:02;;;;;;;12.13;8.52;;;2.50;99.90;;;;;;5068001;28;20211;-86
2022/04/01 10:03:43;;;;;;;12.23;9.10;;;2.40;99.90;;;;;;5070304;28;20206;-87
2022/04/01 10:06:11;;;;;;;13.45;8.65;;;2.40;99.90;;;;;;5059120;28;20203;-84
2022/04/01 10:08:39;;;;;;;12.18;8.75;;;2.60;99.90;;;;;;5068522;28;20223;-83
2022/04/01 10:11:07;;;;;;;12.93;9.20;;;2.50;99.90;;;;;;5075497;28;20729;-84
2022/04/01 10:13:35;;;;;;;9.30;8.00;;;2.50;99.90;;;;;;5070087;28;20210;-83
2022/04/01 10:16:05;;;;;;;13.65;8.80;;;2.60;99.90;;;;;;5073152;28;20230;-84
2022/04/01 10:18:34;;;;;;;10.50;8.25;;;2.50;99.90;;;;;;5077950;28;20223;-84
2022/04/01 10:21:03;;;;;;;9.73;7.45;;;2.40;99.90;;;;;;5085616;28;20227;-84
2022/04/01 10:23:31;;;;;;;11.10;9.02;;;2.40;99.90;;;;;;5069050;28;20219;-84
2022/04/01 10:26:03;;;;;;;11.15;7.60;;;2.30;99.90;;;;;;5069852;28;20564;-84
2022/04/01 10:28:30;;;;;;;11.75;8.38;;;2.30;99.90;;;;;;5076639;28;20209;-85
2022/04/01 10:30:59;;;;;;;12.88;9.05;;;2.30;99.90;;;;;;5075285;28;20223;-84
2022/04/01 10:33:29;;;;;;;9.23;7.72;;;2.30;99.90;;;;;;5064615;28;20207;-87
2022/04/01 10:35:56;;;;;;;11.88;7.88;;;2.20;99.90;;;;;;5072389;28;20203;-86
2022/04/01 10:38:28;;;;;;;10.20;7.22;;;2.10;99.90;;;;;;5074478;28;20930;-87
2022/04/01 10:40:58;;;;;;;9.13;7.13;;;;;;;;;;5076501;28;20199;-86
2022/04/01 10:43:30;;;;;;;7.68;5.85;;;2.20;99.90;;;;;;5081069;28;20198;-86
2022/04/01 10:46:00;;;;;;;8.73;7.75;;;2.20;99.90;;;;;;5068756;28;20234;-87
2022/04/01 10:54:01;;;;;;;9.98;5.35;;;2.30;99.90;;;;;;5048979;28;20235;-88
2022/04/01 10:56:37;;;;;;;6.55;5.10;;;2.20;99.90;;;;;;5068651;28;20252;-88
2022/04/01 10:59:11;;;;;;;5.88;5.35;;;2.10;99.90;;;;;;5069203;28;20215;-88
2022/04/01 11:01:41;;;;;;;5.65;5.05;;;2.50;99.90;;;;;;5055364;28;20634;-88
2022/04/01 11:04:31;;;;;;;4.60;3.25;;;1.90;99.90;;;;;;5081163;28;20199;-88
2022/04/01 11:07:00;;;;;;;4.22;3.80;;;1.80;99.90;;;;;;5072719;28;20203;-89
2022/04/01 11:09:46;;;;;;;2.97;2.78;;;1.90;99.90;;;;;;5077629;28;20232;-89
2022/04/01 11:12:30;;;;;;;3.47;3.17;;;2.00;99.90;;;;;;5076202;28;20231;-88
2022/04/01 11:15:25;;;;;;;4.88;3.80;;;1.90;99.90;;;;;;5084135;28;20745;-88
2022/04/01 11:18:11;;;;;;;4.13;3.40;;;2.00;99.90;;;;;;5073598;28;20202;-88
2022/04/01 11:20:40;;;;;;;4.40;3.63;;;2.00;99.90;;;;;;5068761;28;20266;-88
2022/04/01 11:23:14;;;;;;;4.18;3.75;;;1.80;99.90;;;;;;5081317;28;20202;-89
2022/04/01 11:25:57;;;;;;;4.72;4.32;;;1.80;99.90;;;;;;5068991;28;20210;-88
2022/04/01 11:28:29;;;;;;;3.85;3.42;;;1.80;99.90;;;;;;5067600;28;20199;-88
2022/04/01 11:31:21;;;;;;;4.10;3.70;;;2.10;99.90;;;;;;5068017;28;20196;-88
2022/04/01 11:34:01;;;;;;;5.00;4.60;;;2.00;99.90;;;;;;5066699;28;20652;-89
2022/04/01 11:36:29;;;;;;;4.72;3.90;;;2.00;99.90;;;;;;5066112;28;20211;-88
2022/04/01 11:38:56;;;;;;;5.35;4.65;;;2.00;99.90;;;;;;5068010;28;20214;-88
2022/04/01 11:41:24;;;;;;;4.53;3.92;;;2.00;99.90;;;;;;5073772;28;20999;-89
2022/04/01 11:43:52;;;;;;;4.43;3.67;;;1.90;99.90;;;;;;5071244;28;20206;-88
2022/04/01 11:46:20;;;;;;;3.80;3.40;;;2.00;99.90;;;;;;5061123;28;20203;-88
2022/04/01 11:48:48;;;;;;;4.25;3.85;;;2.20;99.90;;;;;;5058495;28;20217;-88
2022/04/01 11:51:16;;;;;;;5.05;4.55;;;2.20;99.90;;;;;;5065087;28;20199;-88
2022/04/01 11:53:46;;;;;;;6.05;5.07;;;2.20;99.90;;;;;;5066906;28;20662;-88
2022/04/01 11:56:14;;;;;;;4.80;4.40;;;2.20;99.90;;;;;;5065256;28;20205;-88
2022/04/01 11:58:56;;;;;;;3.83;3.45;;;2.10;99.90;;;;;;5062468;28;20199;-89
2022/04/01 12:01:28;;;;;;;6.05;5.55;;;2.00;99.90;;;;;;5070348;28;20619;-88
2022/04/01 12:04:03;;;;;;;6.05;5.13;;;1.90;99.90;;;;;;5065326;28;20223;-88
2022/04/01 12:09:14;;;;;;;6.07;5.50;;;1.90;99.90;;;;;;5069902;28;20206;-88
2022/04/01 12:11:41;;;;;;;6.32;4.85;;;1.90;99.90;;;;;;5071758;28;20207;-88
2022/04/01 12:14:09;;;;;;;4.25;3.83;;;2.10;99.90;;;;;;5072735;28;20199;-88
2022/04/01 12:16:42;;;;;;;4.72;4.32;;;2.00;99.90;;;;;;5071327;28;20215;-88
2022/04/01 12:19:16;;;;;;;7.60;5.60;;;2.10;99.90;;;;;;5074166;28;20235;-88
2022/04/01 12:21:43;;;;;;;6.60;5.93;;;2.00;99.90;;;;;;5071178;28;20230;-88
2022/04/01 12:24:10;;;;;;;5.20;4.65;;;2.10;99.90;;;;;;5066710;28;20195;-88
2022/04/01 12:26:37;;;;;;;6.35;5.38;;;2.20;99.90;;;;;;5062727;28;20204;-87
2022/04/01 12:29:18;;;;;;;5.57;5.07;;;3.80;99.90;;;;;;5063288;28;20235;-88
2022/04/01 12:31:52;;;;;;;6.18;5.57;;;2.00;99.90;;;;;;5071396;28;20227;-88
2022/04/01 12:34:19;;;;;;;6.53;5.72;;;1.70;99.90;;;;;;5071646;28;20215;-88
2022/04/01 12:36:56;;;;;;;6.38;5.78;;;1.80;99.90;;;;;;5068611;28;20203;-88
2022/04/01 12:39:24;;;;;;;6.63;6.03;;;1.90;99.90;;;;;;5064611;28;20216;-88
2022/04/01 12:41:52;;;;;;;8.73;6.70;;;1.90;99.90;;;;;;5065553;28;20203;-87
2022/04/01 12:44:23;;;;;;;6.68;5.80;;;2.00;99.90;;;;;;5068205;28;20204;-87
2022/04/01 12:46:52;;;;;;;8.77;7.20;;;2.00;99.90;;;;;;5068946;28;20689;-87
2022/04/01 12:49:20;;;;;;;7.18;6.47;;;2.20;99.90;;;;;;5070507;28;20198;-87
2022/04/01 12:51:53;;;;;;;9.65;6.72;;;2.20;99.90;;;;;;5069502;28;20585;-87
2022/04/01 12:54:33;;;;;;;9.93;8.00;;;2.30;99.90;;;;;;5066026;28;20204;-87
2022/04/01 12:57:01;;;;;;;8.27;7.47;;;2.20;99.90;;;;;;5060359;28;20290;-88
2022/04/01 12:59:29;;;;;;;9.20;8.25;;;;;;;;;;5069171;28;20214;-88
2022/04/01 13:02:00;;;;;;;10.80;8.50;;;2.20;99.90;;;;;;5070422;28;20711;-88
2022/04/01 13:04:28;;;;;;;9.57;6.75;;;;;;;;;;5066822;28;20200;-88
2022/04/01 13:07:15;;;;;;;6.38;5.15;;;1.90;99.90;;;;;;5061588;28;20200;-87
2022/04/01 13:09:50;;;;;;;7.93;6.88;;;1.90;99.90;;;;;;5063000;28;20219;-88
2022/04/01 13:12:18;;;;;;;7.07;5.28;;;1.90;99.90;;;;;;5070312;28;20206;-87
2022/04/01 13:14:46;;;;;;;7.20;5.78;;;1.80;99.90;;;;;;5061498;28;20196;-88
2022/04/01 13:17:16;;;;;;;6.95;6.25;;;1.70;99.90;;;;;;5079732;28;20259;-87